Sonnblick Mtn, Austria
Current Conditions -  °F | °C
As of 3:20 AM on Thursday 27 Nov 2014 (Local Time) from LOWS Reporting Station
Broken Clouds Broken Clouds  
Wind Chill: 34°   Ceiling: 700
Heat Index: 37°   Visibility: 6mi
Dew Point: 36°   Wind: 5mph
Humidity: 93%   Direction: 340°NNW
Pressure: 29.91"   Gusts: NA
Location:  47.05°N, 12.95°E
Report Text: LOWS 270120Z AUTO 34004KT 9000 BKN007 03/02 Q1013
Loading
Personal Weather Stations






























Interactive Weather Map New forecast layout! Learn more

10-Day Weather Forecast

Advertisements
Track Severe Weather on mobile